Terminal Aerodrome Forecast
Issued by NWS Oklahoma City, OK

Current Version | Previous Version | Text Only | Print | Product List | Glossary On
Versions: 1 2 3 4 5 6 7 8 9 10 11 12
000
FTUS44 KOUN 201134
TAFOUN
TAF
KOUN 201134Z 2012/2112 16008KT P6SM BKN150
     FM201400 18013KT P6SM VCSH BKN050 OVC100
     FM201800 17011KT P6SM VCSH SCT025 OVC050
      TEMPO 2020/2024 -RA
     FM210000 17012KT P6SM VCSH BKN025 OVC050
      TEMPO 2100/2103 -RA
     FM210600 16007KT 4SM BR OVC008 PROB30 2106/2112 -RA=

USA.gov is the U.S. government's official web portal to all federal, state and local government web resources and services.